Magnolia, Delaware
Current Conditions -  °F | °C
As of 8:58 AM on Saturday 22 Nov 2014 (Local Time) from KDOV Reporting Station
Clear Clear  
Wind Chill: 24°   Ceiling: Unl
Heat Index: 32°   Visibility: 10mi
Dew Point: 20°   Wind: 9mph
Humidity: 61%   Direction: 180°S
Pressure: 30.52"   Gusts: NA
Location:  39.07°N, 75.48°W
Report Text: KDOV 221358Z AUTO 18008KT 10SM CLR 00/M07 A3052 RMK AO2 SLP339 T10011068
Loading
Personal Weather Stations






























Interactive Weather Map New forecast layout! Learn more

10-Day Weather Forecast

Advertisements
Track Severe Weather on mobile